Luxemburg, IA (52056)

8:42 PM CDT on August 28, 2014 (GMT -0500)
South Lake | Change Station
CLOSE
Current Station
Personal Weather Station
Location: Farley, IA
Elevation: 1083 ft
Nearby Weather Stations

Elev 1083 ft 42.44 °N, 91.00 °W | Updated 5 seconds ago

Overcast
Overcast
66.9 °F
Feels Like 66.9 °F
N
7.0
Wind Variable Wind from SE
Gusts 0.0 mph

Today
High -- | Low -- °F
--% Chance of Precip.
Yesterday
High -- | Low -- °F
Precip. -- in
6:24 AM 7:45 PM
Waxing Crescent, 11% visible
Pressure 29.99 in
Visibility 10.0 miles
Clouds Mostly Cloudy 800 ft
Overcast 3100 ft
Dew Point 66 °F
Humidity 96%
Rainfall 0.05 in
Snow Depth Not available.
UV 0 out of 12
Pollen 4.70 out of 12
Air Quality Not available.
Flu Activity Not available.
SPECI KDBQ 290102Z AUTO 13009KT 10SM BKN008 OVC031 20/18 A2999 RMK AO2 T02000183 $

More Conditions Fewer Conditions

Pressure 29.99 in
Visibility 10.0 miles
Clouds Mostly Cloudy 800 ft
Overcast 3100 ft
Dew Point 66 °F
Humidity 96%
Rainfall 0.05 in
Snow Depth Not available.
UV 0 out of 12
Pollen 4.70 out of 12
Air Quality Not available.
Flu Activity Not available.
SPECI KDBQ 290102Z AUTO 13009KT 10SM BKN008 OVC031 20/18 A2999 RMK AO2 T02000183 $

More Conditions Fewer Conditions

10-Day Weather Forecast

Almanac

Astronomy

Aug. 28, 2014 Rise Set
Actual Time 6:24 AM CDT 7:45 PM CDT
Civil Twilight 5:55 AM CDT 8:14 PM CDT
Nautical Twilight 5:20 AM CDT 8:49 PM CDT
Astronomical Twilight 4:43 AM CDT 9:26 PM CDT
Moon 9:22 AM CDT (8/28) 9:04 PM CDT (8/28)
Length of Visible Light 14h 18m
Length of Day
13h 20m
Tomorrow will be 2m 44s shorter.
Waxing Crescent, 11% of the Moon is Illuminated
Today
Waxing Crescent
Sep 2
First Quarter
Sep 8
Full
Sep 15
Last Quarter
Sep 24
New

Today's Extremes

State Highs State Lows

Community

WunderPhotos

Upload Photos

1,748,131 photos uploaded!

Nearby

Snow Depth

Station Depth Elevation
No new snow has been reported.

Earthquake Activity

City Distance Mag. Time & Date
No recent earthquake activity has been reported nearby.
Minimum magnitude displayed is 2.5.

Coastal Water Temperatures

Place Temperature
No Stations Reporting

Nearby Weather Stations